createdAt,value
2017-01-06T00:00:29.375Z,-1.19
2017-01-06T00:01:43.824Z,-1.22
2017-01-06T00:02:57.431Z,-1.23
2017-01-06T00:04:11.040Z,-1.23
2017-01-06T00:05:24.605Z,-1.23
2017-01-06T00:06:38.536Z,-1.21
2017-01-06T00:07:52.273Z,-1.19
2017-01-06T00:09:05.894Z,-1.18
2017-01-06T00:10:19.523Z,-1.13
2017-01-06T00:11:33.230Z,-1.1
2017-01-06T00:19:09.167Z,-1.34
2017-01-06T00:20:22.754Z,-1.43
2017-01-06T00:21:36.359Z,-1.48
2017-01-06T00:22:49.964Z,-1.52
2017-01-06T00:24:04.273Z,-1.53
2017-01-06T00:25:17.932Z,-1.55
2017-01-06T00:26:32.167Z,-1.55
2017-01-06T00:27:46.215Z,-1.52
2017-01-06T00:28:59.874Z,-1.52
2017-01-06T00:30:13.967Z,-1.56
2017-01-06T00:31:28.166Z,-1.6
2017-01-06T00:32:41.758Z,-1.59
2017-01-06T00:33:55.330Z,-1.57
2017-01-06T00:35:10.206Z,-1.57
2017-01-06T00:36:23.827Z,-1.6
2017-01-06T00:37:37.472Z,-1.62
2017-01-06T00:38:51.085Z,-1.64
2017-01-06T00:40:05.556Z,-1.68
2017-01-06T00:41:19.202Z,-1.73
2017-01-06T00:42:32.825Z,-1.76
2017-01-06T00:43:46.604Z,-1.77
2017-01-06T00:45:00.168Z,-1.74
2017-01-06T00:46:13.820Z,-1.71
2017-01-06T00:47:27.433Z,-1.72
2017-01-06T00:48:40.969Z,-1.76
2017-01-06T00:49:54.528Z,-1.81
2017-01-06T00:51:08.535Z,-1.83
2017-01-06T00:52:22.529Z,-1.83
2017-01-06T00:53:36.117Z,-1.83
2017-01-06T00:54:49.702Z,-1.84
2017-01-06T00:56:03.367Z,-1.88
2017-01-06T00:57:17.266Z,-1.9
2017-01-06T00:58:30.959Z,-1.95
2017-01-06T00:59:44.576Z,-2
2017-01-06T01:00:58.100Z,-2.05
2017-01-06T01:02:12.740Z,-2.09
2017-01-06T01:03:26.319Z,-2.15
2017-01-06T01:04:39.868Z,-2.19
2017-01-06T01:05:53.479Z,-2.23
2017-01-06T01:07:07.234Z,-2.23
2017-01-06T01:08:20.782Z,-2.23
2017-01-06T01:09:34.344Z,-2.25
2017-01-06T01:10:50.171Z,-2.26
2017-01-06T01:12:03.870Z,-2.26
2017-01-06T01:13:17.414Z,-2.26
2017-01-06T01:14:31.011Z,-2.26
2017-01-06T01:15:44.595Z,-2.26
2017-01-06T01:16:58.639Z,-2.27
2017-01-06T01:18:12.503Z,-2.24
2017-01-06T01:19:26.649Z,-2.22
2017-01-06T01:20:41.154Z,-2.25
2017-01-06T01:21:54.765Z,-2.25
2017-01-06T01:23:09.355Z,-2.26
2017-01-06T01:24:23.538Z,-2.27
2017-01-06T01:25:38.012Z,-2.29
2017-01-06T01:26:52.860Z,-2.31
2017-01-06T01:28:07.382Z,-2.3
2017-01-06T01:29:21.557Z,-2.3
2017-01-06T01:30:35.800Z,-2.28
2017-01-06T01:31:49.819Z,-2.29
2017-01-06T01:33:03.614Z,-2.3
2017-01-06T01:34:17.208Z,-2.32
2017-01-06T01:35:30.924Z,-2.32
2017-01-06T01:36:45.390Z,-2.29
2017-01-06T01:37:59.467Z,-2.28
2017-01-06T01:39:13.064Z,-2.27
2017-01-06T01:40:26.642Z,-2.3
2017-01-06T01:41:40.523Z,-2.32
2017-01-06T01:42:54.148Z,-2.34
2017-01-06T01:44:09.942Z,-2.35
2017-01-06T01:45:23.965Z,-2.36
2017-01-06T01:46:38.472Z,-2.37
2017-01-06T01:47:52.564Z,-2.35
2017-01-06T01:49:07.543Z,-2.34
2017-01-06T01:50:22.310Z,-2.33
2017-01-06T01:51:35.896Z,-2.33
2017-01-06T01:52:49.455Z,-2.35
2017-01-06T01:54:04.354Z,-2.36
2017-01-06T01:55:18.365Z,-2.36
2017-01-06T01:56:32.043Z,-2.37
2017-01-06T01:57:46.008Z,-2.37
2017-01-06T01:58:59.588Z,-2.37
2017-01-06T02:00:13.248Z,-2.38
2017-01-06T02:01:27.284Z,-2.37
2017-01-06T02:02:40.965Z,-2.4
2017-01-06T02:03:54.510Z,-2.43
2017-01-06T02:05:08.118Z,-2.43
2017-01-06T02:06:21.901Z,-2.4
2017-01-06T02:07:35.469Z,-2.36
2017-01-06T02:08:49.139Z,-2.34
2017-01-06T02:10:02.775Z,-2.32
2017-01-06T02:11:16.354Z,-2.29
2017-01-06T02:12:30.355Z,-2.28
2017-01-06T02:13:43.906Z,-2.28
2017-01-06T02:14:57.515Z,-2.26
2017-01-06T02:16:11.154Z,-2.23
2017-01-06T02:17:24.762Z,-2.26
2017-01-06T02:18:39.834Z,-2.31
2017-01-06T02:19:53.834Z,-2.37
2017-01-06T02:21:07.549Z,-2.4
2017-01-06T02:22:26.140Z,-2.42
2017-01-06T02:23:39.720Z,-2.41
2017-01-06T02:24:53.279Z,-2.4
2017-01-06T02:26:06.858Z,-2.38
2017-01-06T02:27:22.765Z,-2.38
2017-01-06T02:28:36.649Z,-2.41
2017-01-06T02:29:50.204Z,-2.42
2017-01-06T02:31:03.840Z,-2.41
2017-01-06T02:32:17.423Z,-2.44
2017-01-06T02:33:30.996Z,-2.49
2017-01-06T02:34:44.722Z,-2.54
2017-01-06T02:36:00.275Z,-2.6
2017-01-06T02:37:13.895Z,-2.63
2017-01-06T02:38:27.466Z,-2.64
2017-01-06T02:39:41.022Z,-2.65
2017-01-06T02:40:54.589Z,-2.68
2017-01-06T02:42:08.210Z,-2.7
2017-01-06T02:43:21.749Z,-2.71
2017-01-06T02:44:35.322Z,-2.73
2017-01-06T02:45:49.571Z,-2.73
2017-01-06T02:47:03.214Z,-2.78
2017-01-06T02:48:16.840Z,-2.82
2017-01-06T02:49:30.509Z,-2.86
2017-01-06T02:50:44.103Z,-2.89
2017-01-06T02:51:57.648Z,-2.9
2017-01-06T02:53:11.365Z,-2.92
2017-01-06T02:54:25.098Z,-2.91
2017-01-06T02:55:38.659Z,-2.94
2017-01-06T02:56:52.252Z,-2.96
2017-01-06T02:58:05.839Z,-2.95
2017-01-06T02:59:19.554Z,-2.96
2017-01-06T03:00:33.175Z,-2.95
2017-01-06T03:01:46.775Z,-2.93
2017-01-06T03:03:00.428Z,-2.91
2017-01-06T03:04:14.005Z,-2.95
2017-01-06T03:05:27.554Z,-2.96
2017-01-06T03:06:41.190Z,-2.97
2017-01-06T03:07:55.326Z,-2.95
2017-01-06T03:09:09.623Z,-2.96
2017-01-06T03:10:24.112Z,-2.98
2017-01-06T03:11:38.511Z,-2.97
2017-01-06T03:12:52.044Z,-2.94
2017-01-06T03:14:06.072Z,-2.92
2017-01-06T03:15:23.660Z,-2.89
2017-01-06T03:16:39.633Z,-2.88
2017-01-06T03:17:55.019Z,-2.91
2017-01-06T03:19:12.217Z,-2.9
2017-01-06T03:20:28.980Z,-2.91
2017-01-06T03:21:45.147Z,-2.91
2017-01-06T03:23:01.421Z,-2.92
2017-01-06T03:24:16.807Z,-2.96
2017-01-06T03:25:30.761Z,-2.94
2017-01-06T03:26:44.336Z,-2.94
2017-01-06T03:27:58.329Z,-2.95
2017-01-06T03:29:11.936Z,-2.94
2017-01-06T03:30:26.330Z,-2.96
2017-01-06T03:31:39.966Z,-2.96
2017-01-06T03:32:53.563Z,-2.94
2017-01-06T03:34:09.269Z,-2.94
2017-01-06T03:35:24.180Z,-2.95
2017-01-06T03:36:37.744Z,-2.97
2017-01-06T03:37:52.364Z,-3.03
2017-01-06T03:39:06.428Z,-3.06
2017-01-06T03:40:20.450Z,-3.07
2017-01-06T03:41:34.491Z,-3.07
2017-01-06T03:42:48.914Z,-3.04
2017-01-06T03:44:04.839Z,-3.05
2017-01-06T03:45:18.803Z,-3.11
2017-01-06T03:46:32.389Z,-3.2
2017-01-06T03:47:45.967Z,-3.27
2017-01-06T03:49:00.386Z,-3.36
2017-01-06T03:50:15.000Z,-3.43
2017-01-06T03:51:28.611Z,-3.45
2017-01-06T03:52:43.002Z,-3.49
2017-01-06T03:53:56.909Z,-3.52
2017-01-06T03:55:11.985Z,-3.55
2017-01-06T03:56:27.507Z,-3.54
2017-01-06T03:57:41.741Z,-3.53
2017-01-06T03:58:55.300Z,-3.51
2017-01-06T04:00:08.924Z,-3.52
2017-01-06T04:01:22.560Z,-3.52
2017-01-06T04:02:36.200Z,-3.53
2017-01-06T04:03:49.768Z,-3.53
2017-01-06T04:05:03.353Z,-3.56
2017-01-06T04:06:21.961Z,-3.54
2017-01-06T04:07:35.645Z,-3.53
2017-01-06T04:08:49.423Z,-3.5
2017-01-06T04:10:03.511Z,-3.49
2017-01-06T04:11:17.087Z,-3.46
2017-01-06T04:12:30.709Z,-3.47
2017-01-06T04:13:44.304Z,-3.46
2017-01-06T04:14:58.224Z,-3.45
2017-01-06T04:16:11.866Z,-3.45
2017-01-06T04:17:25.441Z,-3.45
2017-01-06T04:19:04.721Z,-3.44
2017-01-06T04:20:19.582Z,-3.44
2017-01-06T04:21:33.188Z,-3.45
2017-01-06T04:22:46.770Z,-3.44
2017-01-06T04:24:00.369Z,-3.46
2017-01-06T04:25:14.066Z,-3.49
2017-01-06T04:26:27.697Z,-3.48
2017-01-06T04:27:41.272Z,-3.5
2017-01-06T04:28:54.860Z,-3.52
2017-01-06T04:30:08.462Z,-3.54
2017-01-06T04:31:22.391Z,-3.62
2017-01-06T04:32:35.967Z,-3.69
2017-01-06T04:33:49.609Z,-3.71
2017-01-06T04:35:03.164Z,-3.7
2017-01-06T04:36:16.766Z,-3.68
2017-01-06T04:37:30.315Z,-3.64
2017-01-06T04:38:43.883Z,-3.66
2017-01-06T04:39:57.624Z,-3.64
2017-01-06T04:41:11.197Z,-3.64
2017-01-06T04:42:24.814Z,-3.64
2017-01-06T04:43:38.491Z,-3.65
2017-01-06T04:44:52.100Z,-3.65
2017-01-06T04:46:05.906Z,-3.66
2017-01-06T04:47:19.554Z,-3.65
2017-01-06T04:48:33.086Z,-3.65
2017-01-06T04:49:46.691Z,-3.65
2017-01-06T04:51:00.253Z,-3.66
2017-01-06T04:52:13.975Z,-3.64
2017-01-06T04:53:27.741Z,-3.61
2017-01-06T04:54:41.348Z,-3.61
2017-01-06T04:55:55.248Z,-3.58
2017-01-06T04:57:08.813Z,-3.57
2017-01-06T04:58:22.446Z,-3.54
2017-01-06T04:59:46.299Z,-3.54
2017-01-06T05:01:02.483Z,-3.6
2017-01-06T05:02:17.355Z,-3.62
2017-01-06T05:03:31.093Z,-3.65
2017-01-06T05:04:44.831Z,-3.63
2017-01-06T05:05:58.381Z,-3.63
2017-01-06T05:07:19.557Z,-3.64
2017-01-06T05:08:33.161Z,-3.65
2017-01-06T05:09:46.740Z,-3.6
2017-01-06T05:11:00.486Z,-3.58
2017-01-06T05:12:14.060Z,-3.53
2017-01-06T05:13:28.278Z,-3.52
2017-01-06T05:14:41.844Z,-3.49
2017-01-06T05:15:55.912Z,-3.52
2017-01-06T05:17:09.995Z,-3.53
2017-01-06T05:18:23.640Z,-3.51
2017-01-06T05:19:37.244Z,-3.51
2017-01-06T05:20:50.969Z,-3.52
2017-01-06T05:22:04.572Z,-3.52
2017-01-06T05:23:19.456Z,-3.53
2017-01-06T05:24:33.101Z,-3.57
2017-01-06T05:25:47.540Z,-3.56
2017-01-06T05:27:02.502Z,-3.56
2017-01-06T05:28:20.457Z,-3.56
2017-01-06T05:29:34.071Z,-3.56
2017-01-06T05:30:48.379Z,-3.47
2017-01-06T05:32:03.671Z,-3.39
2017-01-06T05:33:18.194Z,-3.37
2017-01-06T05:34:32.618Z,-3.33
2017-01-06T05:35:46.359Z,-3.34
2017-01-06T05:37:00.858Z,-3.36
2017-01-06T05:38:17.011Z,-3.37
2017-01-06T05:39:31.612Z,-3.42
2017-01-06T05:40:46.107Z,-3.46
2017-01-06T05:42:00.620Z,-3.44
2017-01-06T05:43:15.390Z,-3.46
2017-01-06T05:44:29.166Z,-3.45
2017-01-06T05:45:42.822Z,-3.45
2017-01-06T05:46:56.580Z,-3.46
2017-01-06T05:48:10.233Z,-3.52
2017-01-06T05:49:24.079Z,-3.58
2017-01-06T05:50:38.563Z,-3.58
2017-01-06T05:51:53.007Z,-3.58
2017-01-06T05:53:08.082Z,-3.59
2017-01-06T05:54:22.886Z,-3.61
2017-01-06T05:55:36.862Z,-3.64
2017-01-06T05:56:52.296Z,-3.69
2017-01-06T05:58:09.906Z,-3.72
2017-01-06T05:59:23.543Z,-3.75
2017-01-06T06:00:38.105Z,-3.79
2017-01-06T06:01:54.995Z,-3.83
2017-01-06T06:03:10.095Z,-3.88
2017-01-06T06:04:25.586Z,-3.91
2017-01-06T06:05:40.444Z,-3.93
2017-01-06T06:06:54.751Z,-3.94
2017-01-06T06:08:09.264Z,-3.9
2017-01-06T06:09:23.006Z,-3.88
2017-01-06T06:10:37.925Z,-3.89
2017-01-06T06:11:52.326Z,-3.9
2017-01-06T06:13:05.952Z,-3.88
2017-01-06T06:14:19.988Z,-3.81
2017-01-06T06:15:34.474Z,-3.76
2017-01-06T06:16:48.064Z,-3.71
2017-01-06T06:18:04.699Z,-3.67
2017-01-06T06:19:18.418Z,-3.65
2017-01-06T06:20:33.598Z,-3.64
2017-01-06T06:21:47.614Z,-3.61
2017-01-06T06:23:01.667Z,-3.6
2017-01-06T06:24:15.666Z,-3.59
2017-01-06T06:25:29.777Z,-3.57
2017-01-06T06:26:44.662Z,-3.55
2017-01-06T06:27:58.671Z,-3.53
2017-01-06T06:29:12.703Z,-3.54
2017-01-06T06:30:26.793Z,-3.56
2017-01-06T06:31:40.343Z,-3.57
2017-01-06T06:32:54.815Z,-3.57
2017-01-06T06:34:08.378Z,-3.59
2017-01-06T06:35:22.825Z,-3.59
2017-01-06T06:36:37.277Z,-3.59
2017-01-06T06:37:50.865Z,-3.6
2017-01-06T06:39:05.992Z,-3.61
2017-01-06T06:40:20.147Z,-3.64
2017-01-06T06:41:34.275Z,-3.65
2017-01-06T06:42:48.800Z,-3.69
2017-01-06T06:44:03.732Z,-3.72
2017-01-06T06:45:17.739Z,-3.72
2017-01-06T06:46:31.869Z,-3.72
2017-01-06T06:48:12.025Z,-3.73
2017-01-06T06:49:26.168Z,-3.78
2017-01-06T06:50:39.799Z,-3.85
2017-01-06T06:51:53.361Z,-3.94
2017-01-06T06:53:07.441Z,-4.02
2017-01-06T06:54:21.026Z,-4.11
2017-01-06T06:55:35.044Z,-4.19
2017-01-06T06:56:48.726Z,-4.27
2017-01-06T06:58:03.649Z,-4.35
2017-01-06T06:59:17.328Z,-4.41
2017-01-06T07:00:31.442Z,-4.46
2017-01-06T07:01:45.492Z,-4.49
2017-01-06T07:02:59.523Z,-4.5
2017-01-06T07:04:14.448Z,-4.51
2017-01-06T07:05:28.449Z,-4.51
2017-01-06T07:06:42.747Z,-4.5
2017-01-06T07:07:56.784Z,-4.49
2017-01-06T07:09:11.274Z,-4.48
2017-01-06T07:10:25.292Z,-4.48
2017-01-06T07:11:39.374Z,-4.48
2017-01-06T07:12:53.707Z,-4.48
2017-01-06T07:14:07.917Z,-4.47
2017-01-06T07:15:21.914Z,-4.48
2017-01-06T07:16:35.926Z,-4.47
2017-01-06T07:17:51.257Z,-4.41
2017-01-06T07:19:05.675Z,-4.36
2017-01-06T07:20:19.313Z,-4.34
2017-01-06T07:21:33.355Z,-4.32
2017-01-06T07:22:47.491Z,-4.29
2017-01-06T07:24:01.495Z,-4.29
2017-01-06T07:25:16.049Z,-4.27
2017-01-06T07:26:30.502Z,-4.22
2017-01-06T07:27:45.379Z,-4.22
2017-01-06T07:28:59.413Z,-4.22
2017-01-06T07:30:13.952Z,-4.22
2017-01-06T07:31:28.032Z,-4.23
2017-01-06T07:32:42.531Z,-4.24
2017-01-06T07:33:56.969Z,-4.34
2017-01-06T07:35:12.745Z,-4.4
2017-01-06T07:36:26.758Z,-4.4
2017-01-06T07:37:40.972Z,-4.44
2017-01-06T07:38:55.196Z,-4.5
2017-01-06T07:40:08.796Z,-4.49
2017-01-06T07:41:23.250Z,-4.48
2017-01-06T07:42:37.708Z,-4.43
2017-01-06T07:43:51.349Z,-4.42
2017-01-06T07:45:06.333Z,-4.39
2017-01-06T07:46:20.407Z,-4.37
2017-01-06T07:47:34.995Z,-4.42
2017-01-06T07:48:48.721Z,-4.47
2017-01-06T07:50:03.131Z,-4.51
2017-01-06T07:51:17.195Z,-4.53
2017-01-06T07:52:31.655Z,-4.56
2017-01-06T07:53:47.067Z,-4.54
2017-01-06T07:55:01.229Z,-4.53
2017-01-06T07:56:16.226Z,-4.54
2017-01-06T07:57:31.209Z,-4.52
2017-01-06T07:58:47.555Z,-4.51
2017-01-06T08:00:02.945Z,-4.49
2017-01-06T08:01:17.051Z,-4.47
2017-01-06T08:02:30.668Z,-4.44
2017-01-06T08:03:45.181Z,-4.43
2017-01-06T08:04:59.203Z,-4.42
2017-01-06T08:06:12.804Z,-4.43
2017-01-06T08:07:26.435Z,-4.42
2017-01-06T08:08:40.074Z,-4.39
2017-01-06T08:09:54.634Z,-4.36
2017-01-06T08:11:08.215Z,-4.34
2017-01-06T08:12:22.338Z,-4.33
2017-01-06T08:13:37.180Z,-4.31
2017-01-06T08:14:51.366Z,-4.32
2017-01-06T08:16:04.990Z,-4.36
2017-01-06T08:17:19.447Z,-4.36
2017-01-06T08:18:33.979Z,-4.34
2017-01-06T08:19:48.090Z,-4.3
2017-01-06T08:21:02.975Z,-4.22
2017-01-06T08:22:18.306Z,-4.16
2017-01-06T08:23:33.628Z,-4.13
2017-01-06T08:24:47.775Z,-4.06
2017-01-06T08:26:02.199Z,-4.06
2017-01-06T08:27:16.195Z,-4.05
2017-01-06T08:28:29.823Z,-4.01
2017-01-06T08:29:45.841Z,-4.01
2017-01-06T08:30:59.447Z,-4.01
2017-01-06T08:32:13.507Z,-3.98
2017-01-06T08:33:28.451Z,-3.93
2017-01-06T08:34:42.493Z,-3.91
2017-01-06T08:35:56.199Z,-3.85
2017-01-06T08:37:09.870Z,-3.79
2017-01-06T08:38:24.035Z,-3.74
2017-01-06T08:39:38.175Z,-3.69
2017-01-06T08:40:52.774Z,-3.65
2017-01-06T08:42:08.104Z,-3.65
2017-01-06T08:43:23.499Z,-3.65
2017-01-06T08:44:37.133Z,-3.61
2017-01-06T08:45:51.698Z,-3.58
2017-01-06T08:47:05.748Z,-3.54
2017-01-06T08:48:20.196Z,-3.49
2017-01-06T08:49:34.680Z,-3.44
2017-01-06T08:50:50.460Z,-3.4
2017-01-06T08:52:06.367Z,-3.36
2017-01-06T08:53:20.883Z,-3.3
2017-01-06T08:54:35.815Z,-3.24
2017-01-06T08:55:50.377Z,-3.22
2017-01-06T08:57:04.030Z,-3.21
2017-01-06T08:58:17.861Z,-3.19
2017-01-06T08:59:31.475Z,-3.16
2017-01-06T09:00:46.590Z,-3.11
2017-01-06T09:02:00.632Z,-3.1
2017-01-06T09:03:15.566Z,-3.07
2017-01-06T09:04:30.508Z,-3.02
2017-01-06T09:05:44.743Z,-2.96
2017-01-06T09:06:58.944Z,-2.92
2017-01-06T09:08:13.081Z,-2.87
2017-01-06T09:09:27.107Z,-2.85
2017-01-06T09:10:41.146Z,-2.83
2017-01-06T09:11:56.525Z,-2.8
2017-01-06T09:13:10.252Z,-2.76
2017-01-06T09:14:24.723Z,-2.72
2017-01-06T09:15:39.632Z,-2.66
2017-01-06T09:16:53.415Z,-2.59
2017-01-06T09:18:07.448Z,-2.49
2017-01-06T09:19:21.936Z,-2.41
2017-01-06T09:20:36.464Z,-2.34
2017-01-06T09:21:52.780Z,-2.29
2017-01-06T09:23:06.471Z,-2.24
2017-01-06T09:24:20.591Z,-2.23
2017-01-06T09:25:38.188Z,-2.2
2017-01-06T09:26:54.065Z,-2.15
2017-01-06T09:28:08.087Z,-2.07
2017-01-06T09:29:22.840Z,-2.04
2017-01-06T09:30:37.948Z,-2.03
2017-01-06T09:31:53.032Z,-2.05
2017-01-06T09:33:07.188Z,-2.11
2017-01-06T09:34:21.384Z,-2.17
2017-01-06T09:35:37.667Z,-2.22
2017-01-06T09:36:54.546Z,-2.26
2017-01-06T09:38:10.303Z,-2.28
2017-01-06T09:39:25.372Z,-2.29
2017-01-06T09:40:39.711Z,-2.28
2017-01-06T09:41:54.468Z,-2.26
2017-01-06T09:43:09.937Z,-2.22
2017-01-06T09:44:25.315Z,-2.19
2017-01-06T09:45:39.780Z,-2.16
2017-01-06T09:46:53.682Z,-2.16
2017-01-06T09:48:07.723Z,-2.14
2017-01-06T09:49:22.665Z,-2.13
2017-01-06T09:50:37.180Z,-2.15
2017-01-06T09:51:52.504Z,-2.23
2017-01-06T09:53:08.161Z,-2.28
2017-01-06T09:54:23.068Z,-2.33
2017-01-06T09:55:38.438Z,-2.4
2017-01-06T09:56:52.584Z,-2.44
2017-01-06T09:58:07.036Z,-2.45
2017-01-06T09:59:21.942Z,-2.46
2017-01-06T10:00:36.816Z,-2.46
2017-01-06T10:01:52.641Z,-2.44
2017-01-06T10:03:06.808Z,-2.42
2017-01-06T10:04:21.854Z,-2.42
2017-01-06T10:05:36.010Z,-2.41
2017-01-06T10:06:50.512Z,-2.37
2017-01-06T10:08:05.164Z,-2.35
2017-01-06T10:09:21.642Z,-2.28
2017-01-06T10:10:35.359Z,-2.23
2017-01-06T10:11:49.955Z,-2.21
2017-01-06T10:13:05.183Z,-2.17
2017-01-06T10:14:20.175Z,-2.17
2017-01-06T10:15:35.623Z,-2.17
2017-01-06T10:16:50.919Z,-2.19
2017-01-06T10:18:06.703Z,-2.16
2017-01-06T10:19:21.864Z,-2.11
2017-01-06T10:20:37.317Z,-2.07
2017-01-06T10:21:52.235Z,-2.03
2017-01-06T10:23:06.519Z,-1.99
2017-01-06T10:24:20.709Z,-2
2017-01-06T10:25:34.755Z,-1.97
2017-01-06T10:26:49.207Z,-1.93
2017-01-06T10:28:03.879Z,-1.9
2017-01-06T10:29:17.959Z,-1.86
2017-01-06T10:30:33.010Z,-1.85
2017-01-06T10:31:47.755Z,-1.82
2017-01-06T10:33:01.937Z,-1.8
2017-01-06T10:34:15.562Z,-1.8
2017-01-06T10:35:30.096Z,-1.81
2017-01-06T10:36:43.698Z,-1.79
2017-01-06T10:37:59.394Z,-1.76
2017-01-06T10:39:13.014Z,-1.71
2017-01-06T10:40:27.938Z,-1.71
2017-01-06T10:41:41.976Z,-1.77
2017-01-06T10:42:56.004Z,-1.8
2017-01-06T10:44:11.262Z,-1.82
2017-01-06T10:45:26.790Z,-1.85
2017-01-06T10:46:43.062Z,-1.88
2017-01-06T10:47:58.282Z,-1.94
2017-01-06T10:49:12.752Z,-2.01
2017-01-06T10:50:26.835Z,-2.04
2017-01-06T10:51:40.869Z,-2.05
2017-01-06T10:52:55.797Z,-2.03
2017-01-06T10:54:10.695Z,-1.99
2017-01-06T10:55:24.338Z,-1.93
2017-01-06T10:56:38.853Z,-1.87
2017-01-06T10:57:53.786Z,-1.83
2017-01-06T10:59:22.731Z,-1.8
2017-01-06T11:00:36.754Z,-1.78
2017-01-06T11:01:51.586Z,-1.75
2017-01-06T11:03:05.988Z,-1.72
2017-01-06T11:04:20.151Z,-1.72
2017-01-06T11:05:35.628Z,-1.69
2017-01-06T11:06:49.259Z,-1.65
2017-01-06T11:08:05.236Z,-1.63
2017-01-06T11:09:20.723Z,-1.63
2017-01-06T11:10:35.649Z,-1.57
2017-01-06T11:11:50.734Z,-1.51
2017-01-06T11:13:04.879Z,-1.48
2017-01-06T11:14:19.007Z,-1.48
2017-01-06T11:15:59.622Z,-1.49
2017-01-06T11:17:15.258Z,-1.5
2017-01-06T11:18:30.282Z,-1.47
2017-01-06T11:20:03.543Z,-1.47
2017-01-06T11:21:17.682Z,-1.44
2017-01-06T11:22:32.151Z,-1.44
2017-01-06T11:23:46.862Z,-1.45
2017-01-06T11:25:01.127Z,-1.47
2017-01-06T11:26:16.614Z,-1.49
2017-01-06T11:27:32.507Z,-1.48
2017-01-06T11:28:46.699Z,-1.48
2017-01-06T11:30:00.856Z,-1.45
2017-01-06T11:31:15.440Z,-1.4
2017-01-06T11:32:30.959Z,-1.37
2017-01-06T11:33:45.574Z,-1.38
2017-01-06T11:34:59.187Z,-1.38
2017-01-06T11:36:12.975Z,-1.36
2017-01-06T11:37:27.458Z,-1.33
2017-01-06T11:38:42.111Z,-1.3
2017-01-06T11:39:57.663Z,-1.32
2017-01-06T11:41:11.383Z,-1.3
2017-01-06T11:42:25.510Z,-1.29
2017-01-06T11:43:40.002Z,-1.25
2017-01-06T11:44:55.136Z,-1.22
2017-01-06T11:46:08.815Z,-1.23
2017-01-06T11:47:22.854Z,-1.24
2017-01-06T11:48:38.027Z,-1.22
2017-01-06T11:49:52.357Z,-1.19
2017-01-06T11:51:06.899Z,-1.14
2017-01-06T11:52:21.438Z,-1.08
2017-01-06T11:53:36.878Z,-1.04
2017-01-06T11:54:52.105Z,-1.03
2017-01-06T11:56:07.089Z,-1.07
2017-01-06T11:57:22.205Z,-1.08
2017-01-06T11:58:36.797Z,-1.07
2017-01-06T11:59:51.393Z,-1.06
2017-01-06T12:01:06.509Z,-1.04
2017-01-06T12:02:20.753Z,-0.99
2017-01-06T12:03:35.292Z,-0.96
2017-01-06T12:04:51.095Z,-0.93
2017-01-06T12:06:05.600Z,-0.91
2017-01-06T12:07:20.104Z,-0.86
2017-01-06T12:08:33.763Z,-0.83
2017-01-06T12:09:48.671Z,-0.78
2017-01-06T12:11:03.348Z,-0.74
2017-01-06T12:12:16.958Z,-0.72
2017-01-06T12:13:31.433Z,-0.67
2017-01-06T12:14:45.254Z,-0.63
2017-01-06T12:15:59.828Z,-0.61
2017-01-06T12:17:14.783Z,-0.59
2017-01-06T12:18:29.776Z,-0.61
2017-01-06T12:19:43.426Z,-0.64
2017-01-06T12:20:57.295Z,-0.65
2017-01-06T12:22:12.242Z,-0.62
2017-01-06T12:23:26.719Z,-0.58
2017-01-06T12:24:41.902Z,-0.53
2017-01-06T12:25:55.614Z,-0.47
2017-01-06T12:27:09.685Z,-0.4
2017-01-06T12:28:23.388Z,-0.35
2017-01-06T12:29:37.873Z,-0.31
2017-01-06T12:30:53.046Z,-0.28
2017-01-06T12:32:07.627Z,-0.25
2017-01-06T12:33:22.242Z,-0.23
2017-01-06T12:34:36.405Z,-0.23
2017-01-06T12:35:51.212Z,-0.27
2017-01-06T12:37:06.179Z,-0.28
2017-01-06T12:38:21.239Z,-0.28
2017-01-06T12:39:36.032Z,-0.28
2017-01-06T12:40:53.123Z,-0.28
2017-01-06T12:42:07.844Z,-0.24
2017-01-06T12:43:23.516Z,-0.24
2017-01-06T12:44:41.829Z,-0.26
2017-01-06T12:45:56.461Z,-0.28
2017-01-06T12:47:11.097Z,-0.3
2017-01-06T12:48:27.438Z,-0.28
2017-01-06T12:49:42.977Z,-0.26
2017-01-06T12:50:58.157Z,-0.22
2017-01-06T12:52:14.362Z,-0.2
2017-01-06T12:53:29.345Z,-0.2
2017-01-06T12:54:44.388Z,-0.2
2017-01-06T12:55:59.857Z,-0.23
2017-01-06T12:57:14.561Z,-0.23
2017-01-06T12:58:29.500Z,-0.22
2017-01-06T12:59:43.141Z,-0.2
2017-01-06T13:00:57.209Z,-0.14
2017-01-06T13:02:12.134Z,-0.15
2017-01-06T13:03:25.936Z,-0.17
2017-01-06T13:04:39.599Z,-0.18
2017-01-06T13:05:54.292Z,-0.18
2017-01-06T13:07:09.292Z,-0.2
2017-01-06T13:08:24.069Z,-0.21
2017-01-06T13:09:38.528Z,-0.18
2017-01-06T13:11:09.657Z,-0.13
2017-01-06T13:12:23.683Z,-0.09
2017-01-06T13:13:38.567Z,-0.11
2017-01-06T13:14:52.700Z,-0.12
2017-01-06T13:16:08.535Z,-0.15
2017-01-06T13:17:23.923Z,-0.16
2017-01-06T13:18:38.397Z,-0.18
2017-01-06T13:19:53.897Z,-0.2
2017-01-06T13:21:09.344Z,-0.22
2017-01-06T13:22:24.554Z,-0.26
2017-01-06T13:23:38.640Z,-0.26
2017-01-06T13:24:53.556Z,-0.27
2017-01-06T13:26:08.580Z,-0.26
2017-01-06T13:27:23.780Z,-0.3
2017-01-06T13:28:38.278Z,-0.31
2017-01-06T13:29:53.353Z,-0.33
2017-01-06T13:31:23.780Z,-0.35
2017-01-06T13:32:38.799Z,-0.35
2017-01-06T13:33:53.584Z,-0.36
2017-01-06T13:35:07.871Z,-0.39
2017-01-06T13:36:24.354Z,-0.38
2017-01-06T13:37:39.834Z,-0.38
2017-01-06T13:38:55.641Z,-0.42
2017-01-06T13:40:11.198Z,-0.44
2017-01-06T13:41:25.721Z,-0.46
2017-01-06T13:42:39.388Z,-0.48
2017-01-06T13:43:53.098Z,-0.5
2017-01-06T13:45:08.152Z,-0.51
2017-01-06T13:46:24.169Z,-0.48
2017-01-06T13:47:37.904Z,-0.47
2017-01-06T13:48:52.424Z,-0.49
2017-01-06T13:50:06.907Z,-0.51
2017-01-06T13:51:23.193Z,-0.52
2017-01-06T13:52:38.529Z,-0.53
2017-01-06T13:53:53.101Z,-0.53
2017-01-06T13:55:07.771Z,-0.56
2017-01-06T13:56:24.127Z,-0.6
2017-01-06T13:57:39.300Z,-0.62
2017-01-06T13:58:55.588Z,-0.62
2017-01-06T14:00:11.352Z,-0.58
2017-01-06T14:01:26.571Z,-0.54
2017-01-06T14:02:44.751Z,-0.47
2017-01-06T14:03:59.810Z,-0.44
2017-01-06T14:05:17.462Z,-0.38
2017-01-06T14:06:33.567Z,-0.35
2017-01-06T14:07:47.990Z,-0.31
2017-01-06T14:09:03.755Z,-0.26
2017-01-06T14:10:18.819Z,-0.22
2017-01-06T14:11:33.331Z,-0.17
2017-01-06T14:12:50.846Z,-0.16
2017-01-06T14:14:07.258Z,-0.17
2017-01-06T14:15:36.777Z,-0.19
2017-01-06T14:16:51.858Z,-0.25
2017-01-06T14:18:07.130Z,-0.24
2017-01-06T14:19:21.311Z,-0.22
2017-01-06T14:20:36.358Z,-0.2
2017-01-06T14:21:52.692Z,-0.16
2017-01-06T14:23:09.050Z,-0.19
2017-01-06T14:24:22.746Z,-0.26
2017-01-06T14:25:38.851Z,-0.32
2017-01-06T14:26:53.762Z,-0.37
2017-01-06T14:28:10.255Z,-0.46
2017-01-06T14:29:25.668Z,-0.5
2017-01-06T14:30:41.950Z,-0.5
2017-01-06T14:31:56.116Z,-0.51
2017-01-06T14:33:12.563Z,-0.49
2017-01-06T14:34:27.275Z,-0.45
2017-01-06T14:35:43.622Z,-0.44
2017-01-06T14:36:59.479Z,-0.43
2017-01-06T14:38:14.914Z,-0.42
2017-01-06T14:39:29.107Z,-0.43
2017-01-06T14:40:43.960Z,-0.44
2017-01-06T14:41:58.063Z,-0.5
2017-01-06T14:43:12.410Z,-0.5
2017-01-06T14:44:28.294Z,-0.47
2017-01-06T14:45:44.874Z,-0.47
2017-01-06T14:47:00.988Z,-0.5
2017-01-06T14:48:16.558Z,-0.5
2017-01-06T14:49:32.279Z,-0.49
2017-01-06T14:50:47.441Z,-0.46
2017-01-06T14:52:02.706Z,-0.44
2017-01-06T14:53:17.739Z,-0.44
2017-01-06T14:54:32.487Z,-0.49
2017-01-06T14:55:48.612Z,-0.53
2017-01-06T14:57:04.162Z,-0.61
2017-01-06T14:58:20.039Z,-0.63
2017-01-06T14:59:35.723Z,-0.66
2017-01-06T15:00:50.037Z,-0.68
2017-01-06T15:02:04.233Z,-0.7
2017-01-06T15:03:18.854Z,-0.75
2017-01-06T15:04:34.043Z,-0.78
2017-01-06T15:05:48.317Z,-0.82
2017-01-06T15:07:02.159Z,-0.87
2017-01-06T15:08:16.422Z,-0.89
2017-01-06T15:09:30.534Z,-0.9
2017-01-06T15:10:45.110Z,-0.9
2017-01-06T15:11:59.845Z,-0.9
2017-01-06T15:13:14.404Z,-0.94
2017-01-06T15:14:29.302Z,-0.97
2017-01-06T15:15:42.945Z,-1.01
2017-01-06T15:16:57.203Z,-1.05
2017-01-06T15:18:11.572Z,-1.09
2017-01-06T15:19:26.525Z,-1.14
2017-01-06T15:20:42.604Z,-1.2
2017-01-06T15:21:58.084Z,-1.24
2017-01-06T15:23:12.674Z,-1.28
2017-01-06T15:24:27.319Z,-1.3
2017-01-06T15:25:42.343Z,-1.35
2017-01-06T15:26:58.460Z,-1.37
2017-01-06T15:28:12.568Z,-1.36
2017-01-06T15:29:26.763Z,-1.39
2017-01-06T15:30:41.423Z,-1.4
2017-01-06T15:31:56.391Z,-1.4
2017-01-06T15:33:11.004Z,-1.41
2017-01-06T15:34:25.912Z,-1.41
2017-01-06T15:35:40.201Z,-1.41
2017-01-06T15:36:54.440Z,-1.45
2017-01-06T15:38:09.794Z,-1.48
2017-01-06T15:39:24.848Z,-1.51
2017-01-06T15:40:39.328Z,-1.54
2017-01-06T15:41:54.662Z,-1.55
2017-01-06T15:43:10.339Z,-1.57
2017-01-06T15:44:25.248Z,-1.59
2017-01-06T15:45:40.838Z,-1.59
2017-01-06T15:46:56.160Z,-1.58
2017-01-06T15:48:10.909Z,-1.6
2017-01-06T15:49:25.580Z,-1.61
2017-01-06T15:50:40.510Z,-1.64
2017-01-06T15:51:55.384Z,-1.66
2017-01-06T15:53:09.961Z,-1.69
2017-01-06T15:54:24.944Z,-1.71
2017-01-06T15:55:40.467Z,-1.75
2017-01-06T15:56:56.873Z,-1.81
2017-01-06T15:58:11.667Z,-1.83
2017-01-06T15:59:26.916Z,-1.84
2017-01-06T16:00:41.145Z,-1.86
2017-01-06T16:01:55.743Z,-1.85
2017-01-06T16:03:12.634Z,-1.86
2017-01-06T16:04:28.740Z,-1.89
2017-01-06T16:05:44.378Z,-1.95
2017-01-06T16:07:00.019Z,-1.97
2017-01-06T16:08:14.859Z,-2
2017-01-06T16:09:29.175Z,-2.02
2017-01-06T16:10:43.346Z,-2.06
2017-01-06T16:11:57.192Z,-2.09